sensor_id;sensor_type;location;lat;lon;timestamp;P1;durP1;ratioP1;P2;durP2;ratioP2
12202;SDS011;6164;42.178;24.622;2023-06-14T00:01:49;7.45;;;6.75;;
12202;SDS011;6164;42.178;24.622;2023-06-14T00:04:16;7.30;;;6.70;;
12202;SDS011;6164;42.178;24.622;2023-06-14T00:06:43;7.75;;;6.95;;
12202;SDS011;6164;42.178;24.622;2023-06-14T00:09:12;7.55;;;6.85;;
12202;SDS011;6164;42.178;24.622;2023-06-14T00:11:39;7.53;;;6.80;;
12202;SDS011;6164;42.178;24.622;2023-06-14T00:14:06;7.93;;;7.22;;
12202;SDS011;6164;42.178;24.622;2023-06-14T00:16:33;8.23;;;7.45;;
12202;SDS011;6164;42.178;24.622;2023-06-14T00:19:00;7.68;;;6.95;;
12202;SDS011;6164;42.178;24.622;2023-06-14T00:21:28;8.48;;;7.50;;
12202;SDS011;6164;42.178;24.622;2023-06-14T00:23:55;8.82;;;7.95;;
12202;SDS011;6164;42.178;24.622;2023-06-14T00:26:23;8.63;;;7.82;;
12202;SDS011;6164;42.178;24.622;2023-06-14T00:28:51;7.65;;;7.05;;
12202;SDS011;6164;42.178;24.622;2023-06-14T00:31:18;8.35;;;7.55;;
12202;SDS011;6164;42.178;24.622;2023-06-14T00:33:44;9.88;;;8.02;;
12202;SDS011;6164;42.178;24.622;2023-06-14T00:36:12;8.43;;;7.68;;
12202;SDS011;6164;42.178;24.622;2023-06-14T00:38:39;8.63;;;7.82;;
12202;SDS011;6164;42.178;24.622;2023-06-14T00:41:06;10.60;;;7.60;;
12202;SDS011;6164;42.178;24.622;2023-06-14T00:43:34;8.75;;;7.65;;
12202;SDS011;6164;42.178;24.622;2023-06-14T00:46:00;11.52;;;7.43;;
12202;SDS011;6164;42.178;24.622;2023-06-14T00:48:27;9.25;;;7.72;;
12202;SDS011;6164;42.178;24.622;2023-06-14T00:50:56;7.55;;;6.72;;
12202;SDS011;6164;42.178;24.622;2023-06-14T00:53:24;8.52;;;7.57;;
12202;SDS011;6164;42.178;24.622;2023-06-14T00:55:50;9.30;;;8.35;;
12202;SDS011;6164;42.178;24.622;2023-06-14T00:58:17;8.15;;;7.35;;
12202;SDS011;6164;42.178;24.622;2023-06-14T01:00:45;8.02;;;7.00;;
12202;SDS011;6164;42.178;24.622;2023-06-14T01:03:13;9.00;;;8.10;;
12202;SDS011;6164;42.178;24.622;2023-06-14T01:05:46;8.68;;;7.78;;
12202;SDS011;6164;42.178;24.622;2023-06-14T01:08:15;8.68;;;7.88;;
12202;SDS011;6164;42.178;24.622;2023-06-14T01:10:52;8.40;;;7.60;;
12202;SDS011;6164;42.178;24.622;2023-06-14T01:13:27;9.07;;;7.88;;
12202;SDS011;6164;42.178;24.622;2023-06-14T01:15:59;8.63;;;7.72;;
12202;SDS011;6164;42.178;24.622;2023-06-14T01:18:27;8.88;;;8.07;;
12202;SDS011;6164;42.178;24.622;2023-06-14T01:20:54;10.27;;;8.15;;
12202;SDS011;6164;42.178;24.622;2023-06-14T01:23:23;10.02;;;8.00;;
12202;SDS011;6164;42.178;24.622;2023-06-14T01:25:50;8.60;;;7.80;;
12202;SDS011;6164;42.178;24.622;2023-06-14T01:28:19;8.70;;;7.75;;
12202;SDS011;6164;42.178;24.622;2023-06-14T01:30:47;10.32;;;8.32;;
12202;SDS011;6164;42.178;24.622;2023-06-14T01:33:19;8.38;;;7.57;;
12202;SDS011;6164;42.178;24.622;2023-06-14T01:35:49;8.23;;;7.53;;
12202;SDS011;6164;42.178;24.622;2023-06-14T01:38:17;9.02;;;8.10;;
12202;SDS011;6164;42.178;24.622;2023-06-14T01:40:46;11.27;;;7.97;;
12202;SDS011;6164;42.178;24.622;2023-06-14T01:43:16;9.30;;;7.85;;
12202;SDS011;6164;42.178;24.622;2023-06-14T01:45:44;11.02;;;7.97;;
12202;SDS011;6164;42.178;24.622;2023-06-14T01:48:13;8.30;;;7.50;;
12202;SDS011;6164;42.178;24.622;2023-06-14T01:50:40;8.30;;;7.60;;
12202;SDS011;6164;42.178;24.622;2023-06-14T01:53:07;7.95;;;7.22;;
12202;SDS011;6164;42.178;24.622;2023-06-14T01:55:35;8.40;;;7.50;;
12202;SDS011;6164;42.178;24.622;2023-06-14T01:58:04;8.80;;;8.02;;
12202;SDS011;6164;42.178;24.622;2023-06-14T02:00:31;8.50;;;7.50;;
12202;SDS011;6164;42.178;24.622;2023-06-14T02:02:58;8.75;;;7.40;;
12202;SDS011;6164;42.178;24.622;2023-06-14T02:05:25;9.82;;;8.05;;
12202;SDS011;6164;42.178;24.622;2023-06-14T02:07:51;9.63;;;7.78;;
12202;SDS011;6164;42.178;24.622;2023-06-14T02:10:20;9.68;;;8.50;;
12202;SDS011;6164;42.178;24.622;2023-06-14T02:12:47;8.13;;;7.43;;
12202;SDS011;6164;42.178;24.622;2023-06-14T02:15:15;15.65;;;8.15;;
12202;SDS011;6164;42.178;24.622;2023-06-14T02:17:43;9.63;;;8.18;;
12202;SDS011;6164;42.178;24.622;2023-06-14T02:20:11;8.93;;;8.02;;
12202;SDS011;6164;42.178;24.622;2023-06-14T02:22:38;10.23;;;8.52;;
12202;SDS011;6164;42.178;24.622;2023-06-14T02:25:05;9.50;;;8.63;;
12202;SDS011;6164;42.178;24.622;2023-06-14T02:27:32;9.73;;;8.75;;
12202;SDS011;6164;42.178;24.622;2023-06-14T02:29:59;10.32;;;8.60;;
12202;SDS011;6164;42.178;24.622;2023-06-14T02:32:28;9.38;;;8.48;;
12202;SDS011;6164;42.178;24.622;2023-06-14T02:34:54;8.93;;;7.60;;
12202;SDS011;6164;42.178;24.622;2023-06-14T02:37:22;9.95;;;8.18;;
12202;SDS011;6164;42.178;24.622;2023-06-14T02:39:49;8.85;;;7.72;;
12202;SDS011;6164;42.178;24.622;2023-06-14T02:42:15;7.85;;;7.13;;
12202;SDS011;6164;42.178;24.622;2023-06-14T02:44:42;11.85;;;8.18;;
12202;SDS011;6164;42.178;24.622;2023-06-14T02:47:10;9.45;;;7.57;;
12202;SDS011;6164;42.178;24.622;2023-06-14T02:49:38;8.57;;;7.40;;
12202;SDS011;6164;42.178;24.622;2023-06-14T02:52:05;8.88;;;7.97;;
12202;SDS011;6164;42.178;24.622;2023-06-14T02:54:34;8.63;;;7.60;;
12202;SDS011;6164;42.178;24.622;2023-06-14T02:57:01;8.93;;;7.57;;
12202;SDS011;6164;42.178;24.622;2023-06-14T02:59:27;8.52;;;7.65;;
12202;SDS011;6164;42.178;24.622;2023-06-14T03:01:54;9.13;;;8.23;;
12202;SDS011;6164;42.178;24.622;2023-06-14T03:04:21;11.27;;;10.05;;
12202;SDS011;6164;42.178;24.622;2023-06-14T03:06:52;11.30;;;10.20;;
12202;SDS011;6164;42.178;24.622;2023-06-14T03:09:19;14.70;;;10.95;;
12202;SDS011;6164;42.178;24.622;2023-06-14T03:11:46;10.13;;;9.00;;
12202;SDS011;6164;42.178;24.622;2023-06-14T03:14:12;10.88;;;9.63;;
12202;SDS011;6164;42.178;24.622;2023-06-14T03:16:39;9.50;;;8.70;;
12202;SDS011;6164;42.178;24.622;2023-06-14T03:19:07;10.35;;;9.23;;
12202;SDS011;6164;42.178;24.622;2023-06-14T03:21:34;9.57;;;8.65;;
12202;SDS011;6164;42.178;24.622;2023-06-14T03:24:02;10.63;;;7.93;;
12202;SDS011;6164;42.178;24.622;2023-06-14T03:26:29;13.43;;;10.40;;
12202;SDS011;6164;42.178;24.622;2023-06-14T03:28:56;12.82;;;11.52;;
12202;SDS011;6164;42.178;24.622;2023-06-14T03:31:23;14.13;;;11.43;;
12202;SDS011;6164;42.178;24.622;2023-06-14T03:33:49;12.55;;;11.25;;
12202;SDS011;6164;42.178;24.622;2023-06-14T03:36:16;12.13;;;10.68;;
12202;SDS011;6164;42.178;24.622;2023-06-14T03:38:43;14.48;;;10.43;;
12202;SDS011;6164;42.178;24.622;2023-06-14T03:41:11;10.40;;;9.18;;
12202;SDS011;6164;42.178;24.622;2023-06-14T03:43:38;8.57;;;7.78;;
12202;SDS011;6164;42.178;24.622;2023-06-14T03:46:05;9.38;;;7.82;;
12202;SDS011;6164;42.178;24.622;2023-06-14T03:48:32;9.73;;;7.68;;
12202;SDS011;6164;42.178;24.622;2023-06-14T03:50:58;8.32;;;7.53;;
12202;SDS011;6164;42.178;24.622;2023-06-14T03:53:25;8.02;;;7.07;;
12202;SDS011;6164;42.178;24.622;2023-06-14T03:55:54;9.98;;;6.43;;
12202;SDS011;6164;42.178;24.622;2023-06-14T03:58:23;7.75;;;6.65;;
12202;SDS011;6164;42.178;24.622;2023-06-14T04:00:50;8.48;;;7.13;;
12202;SDS011;6164;42.178;24.622;2023-06-14T04:03:16;9.50;;;6.90;;
12202;SDS011;6164;42.178;24.622;2023-06-14T04:05:44;8.82;;;6.50;;
12202;SDS011;6164;42.178;24.622;2023-06-14T04:08:14;7.57;;;6.80;;
12202;SDS011;6164;42.178;24.622;2023-06-14T04:10:44;13.52;;;7.20;;
12202;SDS011;6164;42.178;24.622;2023-06-14T04:13:11;14.20;;;6.63;;
12202;SDS011;6164;42.178;24.622;2023-06-14T04:15:39;12.55;;;6.75;;
12202;SDS011;6164;42.178;24.622;2023-06-14T04:18:08;9.70;;;6.25;;
12202;SDS011;6164;42.178;24.622;2023-06-14T04:20:35;11.60;;;7.70;;
12202;SDS011;6164;42.178;24.622;2023-06-14T04:23:10;11.13;;;7.30;;
12202;SDS011;6164;42.178;24.622;2023-06-14T04:25:38;12.57;;;7.95;;
12202;SDS011;6164;42.178;24.622;2023-06-14T04:28:05;8.95;;;6.53;;
12202;SDS011;6164;42.178;24.622;2023-06-14T04:30:34;8.85;;;7.10;;
12202;SDS011;6164;42.178;24.622;2023-06-14T04:33:05;11.35;;;7.65;;
12202;SDS011;6164;42.178;24.622;2023-06-14T04:35:31;9.15;;;7.38;;
12202;SDS011;6164;42.178;24.622;2023-06-14T04:38:00;11.82;;;8.13;;
12202;SDS011;6164;42.178;24.622;2023-06-14T04:40:29;15.57;;;11.60;;
12202;SDS011;6164;42.178;24.622;2023-06-14T04:42:56;19.17;;;13.85;;
12202;SDS011;6164;42.178;24.622;2023-06-14T04:45:23;21.38;;;14.85;;
12202;SDS011;6164;42.178;24.622;2023-06-14T04:47:58;15.93;;;14.23;;
12202;SDS011;6164;42.178;24.622;2023-06-14T04:50:26;15.77;;;14.00;;
12202;SDS011;6164;42.178;24.622;2023-06-14T04:52:54;15.25;;;13.15;;
12202;SDS011;6164;42.178;24.622;2023-06-14T04:55:21;13.15;;;9.90;;
12202;SDS011;6164;42.178;24.622;2023-06-14T04:57:49;14.07;;;9.40;;
12202;SDS011;6164;42.178;24.622;2023-06-14T05:00:18;14.05;;;9.40;;
12202;SDS011;6164;42.178;24.622;2023-06-14T05:02:45;7.90;;;7.15;;
12202;SDS011;6164;42.178;24.622;2023-06-14T05:05:14;13.52;;;6.40;;
12202;SDS011;6164;42.178;24.622;2023-06-14T05:07:42;8.43;;;6.97;;
12202;SDS011;6164;42.178;24.622;2023-06-14T05:10:09;11.77;;;6.82;;
12202;SDS011;6164;42.178;24.622;2023-06-14T05:12:36;13.63;;;7.00;;
12202;SDS011;6164;42.178;24.622;2023-06-14T05:15:03;10.38;;;7.30;;
12202;SDS011;6164;42.178;24.622;2023-06-14T05:17:30;8.13;;;6.70;;
12202;SDS011;6164;42.178;24.622;2023-06-14T05:19:57;11.40;;;6.95;;
12202;SDS011;6164;42.178;24.622;2023-06-14T05:22:24;6.63;;;6.05;;
12202;SDS011;6164;42.178;24.622;2023-06-14T05:24:52;7.55;;;6.85;;
12202;SDS011;6164;42.178;24.622;2023-06-14T05:27:18;9.52;;;7.35;;
12202;SDS011;6164;42.178;24.622;2023-06-14T05:29:45;8.98;;;7.97;;
12202;SDS011;6164;42.178;24.622;2023-06-14T05:32:12;8.52;;;7.72;;
12202;SDS011;6164;42.178;24.622;2023-06-14T05:34:38;10.48;;;8.05;;
12202;SDS011;6164;42.178;24.622;2023-06-14T05:37:05;10.18;;;8.27;;
12202;SDS011;6164;42.178;24.622;2023-06-14T05:39:32;10.15;;;7.93;;
12202;SDS011;6164;42.178;24.622;2023-06-14T05:42:00;9.35;;;8.30;;
12202;SDS011;6164;42.178;24.622;2023-06-14T05:44:27;10.30;;;9.05;;
12202;SDS011;6164;42.178;24.622;2023-06-14T05:46:54;9.88;;;8.50;;
12202;SDS011;6164;42.178;24.622;2023-06-14T05:49:20;11.02;;;9.93;;
12202;SDS011;6164;42.178;24.622;2023-06-14T05:51:47;13.05;;;10.35;;
12202;SDS011;6164;42.178;24.622;2023-06-14T05:54:14;10.30;;;9.40;;
12202;SDS011;6164;42.178;24.622;2023-06-14T05:56:40;10.80;;;9.80;;
12202;SDS011;6164;42.178;24.622;2023-06-14T05:59:08;11.48;;;10.27;;
12202;SDS011;6164;42.178;24.622;2023-06-14T06:01:35;13.00;;;10.43;;
12202;SDS011;6164;42.178;24.622;2023-06-14T06:04:02;11.73;;;10.70;;
12202;SDS011;6164;42.178;24.622;2023-06-14T06:06:29;17.42;;;12.05;;
12202;SDS011;6164;42.178;24.622;2023-06-14T06:08:56;13.25;;;10.98;;
12202;SDS011;6164;42.178;24.622;2023-06-14T06:11:23;11.63;;;10.40;;
12202;SDS011;6164;42.178;24.622;2023-06-14T06:13:50;14.07;;;11.50;;
12202;SDS011;6164;42.178;24.622;2023-06-14T06:16:18;12.23;;;11.00;;
12202;SDS011;6164;42.178;24.622;2023-06-14T06:18:44;12.75;;;10.98;;
12202;SDS011;6164;42.178;24.622;2023-06-14T06:21:11;12.90;;;11.70;;
12202;SDS011;6164;42.178;24.622;2023-06-14T06:23:38;12.75;;;11.52;;
12202;SDS011;6164;42.178;24.622;2023-06-14T06:26:05;12.80;;;11.48;;
12202;SDS011;6164;42.178;24.622;2023-06-14T06:28:31;12.05;;;10.95;;
12202;SDS011;6164;42.178;24.622;2023-06-14T06:30:58;13.50;;;12.05;;
12202;SDS011;6164;42.178;24.622;2023-06-14T06:33:26;12.63;;;11.50;;
12202;SDS011;6164;42.178;24.622;2023-06-14T06:35:53;13.05;;;11.85;;
12202;SDS011;6164;42.178;24.622;2023-06-14T06:38:19;14.40;;;12.40;;
12202;SDS011;6164;42.178;24.622;2023-06-14T06:40:46;12.55;;;11.10;;
12202;SDS011;6164;42.178;24.622;2023-06-14T06:43:13;13.35;;;11.88;;
12202;SDS011;6164;42.178;24.622;2023-06-14T06:45:41;15.02;;;12.38;;
12202;SDS011;6164;42.178;24.622;2023-06-14T06:48:08;16.27;;;12.75;;
12202;SDS011;6164;42.178;24.622;2023-06-14T06:50:37;14.52;;;12.63;;
12202;SDS011;6164;42.178;24.622;2023-06-14T06:53:03;15.25;;;13.65;;
12202;SDS011;6164;42.178;24.622;2023-06-14T06:55:31;14.30;;;12.88;;
12202;SDS011;6164;42.178;24.622;2023-06-14T06:57:58;13.77;;;12.45;;
12202;SDS011;6164;42.178;24.622;2023-06-14T07:00:25;13.20;;;11.18;;
12202;SDS011;6164;42.178;24.622;2023-06-14T07:02:52;12.90;;;11.18;;
12202;SDS011;6164;42.178;24.622;2023-06-14T07:05:20;13.57;;;10.60;;
12202;SDS011;6164;42.178;24.622;2023-06-14T07:07:48;16.85;;;11.70;;
12202;SDS011;6164;42.178;24.622;2023-06-14T07:10:15;16.38;;;11.38;;
12202;SDS011;6164;42.178;24.622;2023-06-14T07:12:41;11.80;;;10.57;;
12202;SDS011;6164;42.178;24.622;2023-06-14T07:15:08;14.82;;;10.55;;
12202;SDS011;6164;42.178;24.622;2023-06-14T07:17:36;10.68;;;9.60;;
12202;SDS011;6164;42.178;24.622;2023-06-14T07:20:03;14.30;;;10.45;;
12202;SDS011;6164;42.178;24.622;2023-06-14T07:22:36;11.63;;;10.43;;
12202;SDS011;6164;42.178;24.622;2023-06-14T07:25:05;11.52;;;10.30;;
12202;SDS011;6164;42.178;24.622;2023-06-14T07:27:33;12.30;;;11.02;;
12202;SDS011;6164;42.178;24.622;2023-06-14T07:30:00;12.50;;;10.18;;
12202;SDS011;6164;42.178;24.622;2023-06-14T07:32:26;11.20;;;10.10;;
12202;SDS011;6164;42.178;24.622;2023-06-14T07:34:53;12.32;;;10.90;;
12202;SDS011;6164;42.178;24.622;2023-06-14T07:37:20;10.52;;;9.50;;
12202;SDS011;6164;42.178;24.622;2023-06-14T07:39:46;11.00;;;9.55;;
12202;SDS011;6164;42.178;24.622;2023-06-14T07:42:15;13.75;;;9.48;;
12202;SDS011;6164;42.178;24.622;2023-06-14T07:44:41;10.38;;;8.80;;
12202;SDS011;6164;42.178;24.622;2023-06-14T07:47:08;9.88;;;8.73;;
12202;SDS011;6164;42.178;24.622;2023-06-14T07:49:35;15.18;;;8.40;;
12202;SDS011;6164;42.178;24.622;2023-06-14T07:52:02;10.52;;;9.43;;
12202;SDS011;6164;42.178;24.622;2023-06-14T07:54:30;9.95;;;8.93;;
12202;SDS011;6164;42.178;24.622;2023-06-14T07:56:57;10.00;;;8.77;;
12202;SDS011;6164;42.178;24.622;2023-06-14T07:59:27;9.30;;;8.27;;
12202;SDS011;6164;42.178;24.622;2023-06-14T08:01:53;9.55;;;8.60;;
12202;SDS011;6164;42.178;24.622;2023-06-14T08:04:20;9.73;;;8.52;;
12202;SDS011;6164;42.178;24.622;2023-06-14T08:06:47;10.20;;;9.10;;
12202;SDS011;6164;42.178;24.622;2023-06-14T08:09:14;9.80;;;8.80;;
12202;SDS011;6164;42.178;24.622;2023-06-14T08:11:41;9.65;;;8.30;;
12202;SDS011;6164;42.178;24.622;2023-06-14T08:14:08;10.15;;;8.32;;
12202;SDS011;6164;42.178;24.622;2023-06-14T08:16:36;8.88;;;8.18;;
12202;SDS011;6164;42.178;24.622;2023-06-14T08:19:03;12.38;;;9.65;;
12202;SDS011;6164;42.178;24.622;2023-06-14T08:21:29;9.10;;;8.30;;
12202;SDS011;6164;42.178;24.622;2023-06-14T08:23:58;9.68;;;8.80;;
12202;SDS011;6164;42.178;24.622;2023-06-14T08:26:25;10.32;;;8.90;;
12202;SDS011;6164;42.178;24.622;2023-06-14T08:28:54;9.07;;;7.88;;
12202;SDS011;6164;42.178;24.622;2023-06-14T08:31:21;9.00;;;8.15;;
12202;SDS011;6164;42.178;24.622;2023-06-14T08:33:49;11.38;;;8.32;;
12202;SDS011;6164;42.178;24.622;2023-06-14T08:36:15;8.65;;;7.85;;
12202;SDS011;6164;42.178;24.622;2023-06-14T08:38:42;9.73;;;8.52;;
12202;SDS011;6164;42.178;24.622;2023-06-14T08:41:09;10.50;;;8.38;;
12202;SDS011;6164;42.178;24.622;2023-06-14T08:43:38;10.13;;;8.52;;
12202;SDS011;6164;42.178;24.622;2023-06-14T08:46:05;9.65;;;8.68;;
12202;SDS011;6164;42.178;24.622;2023-06-14T08:48:33;21.00;;;9.45;;
12202;SDS011;6164;42.178;24.622;2023-06-14T08:51:02;11.82;;;8.15;;
12202;SDS011;6164;42.178;24.622;2023-06-14T08:53:31;9.85;;;8.20;;
12202;SDS011;6164;42.178;24.622;2023-06-14T08:55:59;11.63;;;8.60;;
12202;SDS011;6164;42.178;24.622;2023-06-14T08:58:27;14.00;;;9.38;;
12202;SDS011;6164;42.178;24.622;2023-06-14T09:00:54;9.18;;;8.27;;
12202;SDS011;6164;42.178;24.622;2023-06-14T09:03:22;12.77;;;9.10;;
12202;SDS011;6164;42.178;24.622;2023-06-14T09:05:54;10.20;;;8.07;;
12202;SDS011;6164;42.178;24.622;2023-06-14T09:08:22;9.60;;;8.70;;
12202;SDS011;6164;42.178;24.622;2023-06-14T09:10:49;8.80;;;7.97;;
12202;SDS011;6164;42.178;24.622;2023-06-14T09:13:16;8.48;;;7.75;;
12202;SDS011;6164;42.178;24.622;2023-06-14T09:15:44;9.65;;;8.05;;
12202;SDS011;6164;42.178;24.622;2023-06-14T09:18:11;10.48;;;8.50;;
12202;SDS011;6164;42.178;24.622;2023-06-14T09:20:37;8.85;;;7.95;;
12202;SDS011;6164;42.178;24.622;2023-06-14T09:23:04;10.15;;;8.23;;
12202;SDS011;6164;42.178;24.622;2023-06-14T09:25:34;10.18;;;7.85;;
12202;SDS011;6164;42.178;24.622;2023-06-14T09:28:08;10.02;;;8.40;;
12202;SDS011;6164;42.178;24.622;2023-06-14T09:30:35;13.20;;;8.27;;
12202;SDS011;6164;42.178;24.622;2023-06-14T09:33:02;8.30;;;7.47;;
12202;SDS011;6164;42.178;24.622;2023-06-14T09:35:30;7.75;;;6.97;;
12202;SDS011;6164;42.178;24.622;2023-06-14T09:37:57;8.07;;;7.35;;
12202;SDS011;6164;42.178;24.622;2023-06-14T09:40:24;8.55;;;7.85;;
12202;SDS011;6164;42.178;24.622;2023-06-14T09:42:52;8.50;;;7.60;;
12202;SDS011;6164;42.178;24.622;2023-06-14T09:45:22;9.40;;;7.60;;
12202;SDS011;6164;42.178;24.622;2023-06-14T09:47:50;9.13;;;8.23;;
12202;SDS011;6164;42.178;24.622;2023-06-14T09:50:17;9.27;;;8.30;;
12202;SDS011;6164;42.178;24.622;2023-06-14T09:52:44;8.30;;;7.57;;
12202;SDS011;6164;42.178;24.622;2023-06-14T09:55:12;8.40;;;7.53;;
12202;SDS011;6164;42.178;24.622;2023-06-14T09:57:40;8.07;;;7.28;;
12202;SDS011;6164;42.178;24.622;2023-06-14T10:00:10;8.85;;;7.95;;
12202;SDS011;6164;42.178;24.622;2023-06-14T10:02:41;9.75;;;8.55;;
12202;SDS011;6164;42.178;24.622;2023-06-14T10:05:15;8.90;;;7.90;;
12202;SDS011;6164;42.178;24.622;2023-06-14T10:07:50;9.20;;;8.30;;
12202;SDS011;6164;42.178;24.622;2023-06-14T10:10:20;9.10;;;7.78;;
12202;SDS011;6164;42.178;24.622;2023-06-14T10:12:47;8.60;;;7.80;;
12202;SDS011;6164;42.178;24.622;2023-06-14T10:15:17;10.27;;;8.48;;
12202;SDS011;6164;42.178;24.622;2023-06-14T10:17:50;9.45;;;8.60;;
12202;SDS011;6164;42.178;24.622;2023-06-14T10:20:23;13.85;;;8.38;;
12202;SDS011;6164;42.178;24.622;2023-06-14T10:22:58;9.57;;;8.30;;
12202;SDS011;6164;42.178;24.622;2023-06-14T10:25:30;9.05;;;8.25;;
12202;SDS011;6164;42.178;24.622;2023-06-14T10:28:14;8.82;;;7.22;;
12202;SDS011;6164;42.178;24.622;2023-06-14T10:33:32;9.60;;;8.23;;
12202;SDS011;6164;42.178;24.622;2023-06-14T10:38:58;9.55;;;8.85;;
12202;SDS011;6164;42.178;24.622;2023-06-14T10:41:27;10.48;;;8.40;;
12202;SDS011;6164;42.178;24.622;2023-06-14T10:47:00;9.68;;;8.82;;
12202;SDS011;6164;42.178;24.622;2023-06-14T10:49:37;9.80;;;8.80;;
12202;SDS011;6164;42.178;24.622;2023-06-14T10:52:08;10.30;;;8.63;;
12202;SDS011;6164;42.178;24.622;2023-06-14T10:54:54;10.88;;;9.50;;
12202;SDS011;6164;42.178;24.622;2023-06-14T10:57:22;9.82;;;8.85;;
12202;SDS011;6164;42.178;24.622;2023-06-14T10:59:52;10.05;;;9.15;;
12202;SDS011;6164;42.178;24.622;2023-06-14T11:05:47;10.98;;;10.02;;
12202;SDS011;6164;42.178;24.622;2023-06-14T11:11:14;10.48;;;9.13;;
12202;SDS011;6164;42.178;24.622;2023-06-14T11:13:42;9.32;;;8.52;;
12202;SDS011;6164;42.178;24.622;2023-06-14T11:16:12;9.23;;;8.43;;
12202;SDS011;6164;42.178;24.622;2023-06-14T11:18:39;9.85;;;8.90;;
12202;SDS011;6164;42.178;24.622;2023-06-14T11:21:08;11.07;;;9.95;;
12202;SDS011;6164;42.178;24.622;2023-06-14T11:23:35;11.40;;;9.32;;
12202;SDS011;6164;42.178;24.622;2023-06-14T11:26:02;9.95;;;8.95;;
12202;SDS011;6164;42.178;24.622;2023-06-14T11:28:37;16.15;;;10.25;;
12202;SDS011;6164;42.178;24.622;2023-06-14T11:31:04;18.00;;;9.70;;
12202;SDS011;6164;42.178;24.622;2023-06-14T11:33:31;11.18;;;9.45;;
12202;SDS011;6164;42.178;24.622;2023-06-14T11:35:57;12.00;;;9.90;;
12202;SDS011;6164;42.178;24.622;2023-06-14T11:38:26;14.30;;;9.43;;
12202;SDS011;6164;42.178;24.622;2023-06-14T11:40:58;11.35;;;10.13;;
12202;SDS011;6164;42.178;24.622;2023-06-14T11:43:25;11.52;;;8.93;;
12202;SDS011;6164;42.178;24.622;2023-06-14T11:45:52;10.48;;;8.13;;
12202;SDS011;6164;42.178;24.622;2023-06-14T11:48:19;9.25;;;8.45;;
12202;SDS011;6164;42.178;24.622;2023-06-14T11:50:49;14.02;;;9.15;;
12202;SDS011;6164;42.178;24.622;2023-06-14T11:53:16;10.73;;;9.52;;
12202;SDS011;6164;42.178;24.622;2023-06-14T11:55:44;9.55;;;8.45;;
12202;SDS011;6164;42.178;24.622;2023-06-14T11:58:12;10.65;;;9.57;;
12202;SDS011;6164;42.178;24.622;2023-06-14T12:00:39;10.23;;;8.75;;
12202;SDS011;6164;42.178;24.622;2023-06-14T12:03:07;14.98;;;8.52;;
12202;SDS011;6164;42.178;24.622;2023-06-14T12:05:33;10.02;;;8.88;;
12202;SDS011;6164;42.178;24.622;2023-06-14T12:08:01;9.07;;;8.38;;
12202;SDS011;6164;42.178;24.622;2023-06-14T12:10:30;16.75;;;8.20;;
12202;SDS011;6164;42.178;24.622;2023-06-14T12:13:10;9.90;;;7.63;;
12202;SDS011;6164;42.178;24.622;2023-06-14T12:15:36;10.10;;;8.38;;
12202;SDS011;6164;42.178;24.622;2023-06-14T12:18:05;10.63;;;8.60;;
12202;SDS011;6164;42.178;24.622;2023-06-14T12:20:36;9.13;;;8.23;;
12202;SDS011;6164;42.178;24.622;2023-06-14T12:23:03;8.68;;;7.82;;
12202;SDS011;6164;42.178;24.622;2023-06-14T12:25:31;10.07;;;9.18;;
12202;SDS011;6164;42.178;24.622;2023-06-14T12:27:59;9.75;;;8.85;;
12202;SDS011;6164;42.178;24.622;2023-06-14T12:30:32;9.57;;;8.77;;
12202;SDS011;6164;42.178;24.622;2023-06-14T12:32:58;9.75;;;8.75;;
12202;SDS011;6164;42.178;24.622;2023-06-14T12:35:25;11.10;;;8.82;;
12202;SDS011;6164;42.178;24.622;2023-06-14T12:37:52;11.38;;;9.15;;
12202;SDS011;6164;42.178;24.622;2023-06-14T12:40:19;9.93;;;9.13;;
12202;SDS011;6164;42.178;24.622;2023-06-14T12:42:46;10.27;;;8.80;;
12202;SDS011;6164;42.178;24.622;2023-06-14T12:45:13;10.23;;;9.25;;
12202;SDS011;6164;42.178;24.622;2023-06-14T12:47:41;9.20;;;8.40;;
12202;SDS011;6164;42.178;24.622;2023-06-14T12:50:08;10.30;;;9.30;;
12202;SDS011;6164;42.178;24.622;2023-06-14T12:52:35;9.80;;;9.00;;
12202;SDS011;6164;42.178;24.622;2023-06-14T12:55:02;10.25;;;9.18;;
12202;SDS011;6164;42.178;24.622;2023-06-14T12:57:29;11.25;;;9.45;;
12202;SDS011;6164;42.178;24.622;2023-06-14T12:59:56;10.85;;;9.77;;
12202;SDS011;6164;42.178;24.622;2023-06-14T13:02:23;10.45;;;9.40;;
12202;SDS011;6164;42.178;24.622;2023-06-14T13:04:52;11.43;;;8.88;;
12202;SDS011;6164;42.178;24.622;2023-06-14T13:07:18;10.25;;;9.18;;
12202;SDS011;6164;42.178;24.622;2023-06-14T13:09:45;12.63;;;8.63;;
12202;SDS011;6164;42.178;24.622;2023-06-14T13:12:12;10.70;;;8.75;;
12202;SDS011;6164;42.178;24.622;2023-06-14T13:14:39;8.85;;;7.97;;
12202;SDS011;6164;42.178;24.622;2023-06-14T13:17:07;9.07;;;8.07;;
12202;SDS011;6164;42.178;24.622;2023-06-14T13:19:34;8.98;;;7.93;;
12202;SDS011;6164;42.178;24.622;2023-06-14T13:22:02;10.55;;;8.05;;
12202;SDS011;6164;42.178;24.622;2023-06-14T13:24:30;9.68;;;8.45;;
12202;SDS011;6164;42.178;24.622;2023-06-14T13:26:57;9.50;;;8.60;;
12202;SDS011;6164;42.178;24.622;2023-06-14T13:29:24;8.77;;;7.90;;
12202;SDS011;6164;42.178;24.622;2023-06-14T13:31:51;10.10;;;8.68;;
12202;SDS011;6164;42.178;24.622;2023-06-14T13:34:18;12.57;;;8.77;;
12202;SDS011;6164;42.178;24.622;2023-06-14T13:36:45;9.73;;;8.55;;
12202;SDS011;6164;42.178;24.622;2023-06-14T13:39:13;9.88;;;8.57;;
12202;SDS011;6164;42.178;24.622;2023-06-14T13:41:40;9.57;;;8.38;;
12202;SDS011;6164;42.178;24.622;2023-06-14T13:44:07;9.77;;;8.38;;
12202;SDS011;6164;42.178;24.622;2023-06-14T13:46:36;8.68;;;7.88;;
12202;SDS011;6164;42.178;24.622;2023-06-14T13:49:03;9.40;;;8.38;;
12202;SDS011;6164;42.178;24.622;2023-06-14T13:51:30;8.50;;;7.68;;
12202;SDS011;6164;42.178;24.622;2023-06-14T13:53:57;10.18;;;9.15;;
12202;SDS011;6164;42.178;24.622;2023-06-14T13:56:25;11.10;;;8.90;;
12202;SDS011;6164;42.178;24.622;2023-06-14T13:58:52;10.57;;;8.40;;
12202;SDS011;6164;42.178;24.622;2023-06-14T14:01:19;10.07;;;8.90;;
12202;SDS011;6164;42.178;24.622;2023-06-14T14:03:45;9.15;;;8.23;;
12202;SDS011;6164;42.178;24.622;2023-06-14T14:06:12;9.68;;;8.63;;
12202;SDS011;6164;42.178;24.622;2023-06-14T14:08:39;9.55;;;8.55;;
12202;SDS011;6164;42.178;24.622;2023-06-14T14:11:06;10.23;;;9.23;;
12202;SDS011;6164;42.178;24.622;2023-06-14T14:13:35;11.88;;;8.98;;
12202;SDS011;6164;42.178;24.622;2023-06-14T14:16:02;10.90;;;9.73;;
12202;SDS011;6164;42.178;24.622;2023-06-14T14:18:30;11.73;;;9.30;;
12202;SDS011;6164;42.178;24.622;2023-06-14T14:20:57;10.45;;;9.35;;
12202;SDS011;6164;42.178;24.622;2023-06-14T14:23:25;9.40;;;8.57;;
12202;SDS011;6164;42.178;24.622;2023-06-14T14:25:52;9.43;;;8.52;;
12202;SDS011;6164;42.178;24.622;2023-06-14T14:28:19;9.65;;;8.77;;
12202;SDS011;6164;42.178;24.622;2023-06-14T14:30:47;9.48;;;8.48;;
12202;SDS011;6164;42.178;24.622;2023-06-14T14:33:14;9.30;;;8.32;;
12202;SDS011;6164;42.178;24.622;2023-06-14T14:35:42;8.65;;;7.85;;
12202;SDS011;6164;42.178;24.622;2023-06-14T14:38:11;9.05;;;7.90;;
12202;SDS011;6164;42.178;24.622;2023-06-14T14:40:38;9.05;;;7.70;;
12202;SDS011;6164;42.178;24.622;2023-06-14T14:43:05;8.27;;;7.25;;
12202;SDS011;6164;42.178;24.622;2023-06-14T14:45:32;8.40;;;6.93;;
12202;SDS011;6164;42.178;24.622;2023-06-14T14:48:00;7.20;;;6.60;;
12202;SDS011;6164;42.178;24.622;2023-06-14T14:50:27;8.63;;;6.55;;
12202;SDS011;6164;42.178;24.622;2023-06-14T14:52:54;6.40;;;5.80;;
12202;SDS011;6164;42.178;24.622;2023-06-14T14:55:21;6.93;;;5.78;;
12202;SDS011;6164;42.178;24.622;2023-06-14T14:57:48;9.35;;;5.90;;